Time;durP1;ratioP1;P1;durP2;ratioP2;P2;SDS_P1;SDS_P2;PMS_P1;PMS_P2;Temp;Humidity;BMP_temperature;BMP_pressure;BME280_temperature;BME280_humidity;BME280_pressure;Samples;Min_cycle;Max_cycle;Signal;HPM_P1;HPM_P2
2022/09/24 00:01:18;;;;;;;39.97;28.63;;;;;;;-145.18;100.00;46660.41;6242078;22;20058;-71
2022/09/24 00:03:49;;;;;;;37.63;27.73;;;;;;;-145.18;100.00;46660.41;6242571;22;20023;-71
2022/09/24 00:06:17;;;;;;;39.63;27.50;;;;;;;-145.18;100.00;46660.41;6242131;22;20473;-71
2022/09/24 00:08:44;;;;;;;40.87;27.73;;;;;;;-145.18;100.00;46660.41;6242579;22;20077;-70
2022/09/24 00:11:11;;;;;;;40.10;27.53;;;;;;;-145.18;100.00;46660.41;6242690;22;20004;-70
2022/09/24 00:13:37;;;;;;;39.30;27.63;;;;;;;-145.18;100.00;46660.41;6242066;22;20016;-70
2022/09/24 00:16:06;;;;;;;44.20;27.40;;;;;;;-145.18;100.00;46660.41;6242736;22;20498;-70
2022/09/24 00:18:33;;;;;;;37.17;26.37;;;;;;;-145.18;100.00;46660.41;6241989;22;20003;-71
2022/09/24 00:20:58;;;;;;;39.20;25.67;;;;;;;-145.18;100.00;46660.41;6242571;22;20031;-71
2022/09/24 00:23:24;;;;;;;35.77;25.80;;;;;;;-145.18;100.00;46660.41;6242291;22;20361;-71
2022/09/24 00:28:33;;;;;;;40.13;26.60;;;;;;;-145.18;100.00;46660.41;6243991;23;20019;-71
2022/09/24 00:31:05;;;;;;;37.90;25.97;;;;;;;-145.18;100.00;46660.41;6244401;22;20008;-71
2022/09/24 00:33:33;;;;;;;41.37;27.23;;;;;;;-145.18;100.00;46660.41;6244164;22;20103;-72
2022/09/24 00:36:04;;;;;;;39.70;26.30;;;;;;;-145.18;100.00;46660.41;6244434;22;20452;-71
2022/09/24 00:38:30;;;;;;;38.50;27.60;;;;;;;-145.18;100.00;46660.41;6243964;22;20383;-72
2022/09/24 00:40:56;;;;;;;38.57;26.27;;;;;;;-145.18;100.00;46660.41;6244475;22;20009;-72
2022/09/24 00:43:29;;;;;;;38.23;25.47;;;;;;;-145.18;100.00;46660.41;6242620;23;20119;-71
2022/09/24 00:46:15;;;;;;;36.60;24.90;;;;;;;-145.18;100.00;46660.41;6244899;22;20004;-72
2022/09/24 00:48:42;;;;;;;34.63;24.77;;;;;;;-145.18;100.00;46660.41;6243598;22;20004;-72
2022/09/24 00:51:11;;;;;;;32.23;22.83;;;;;;;-145.18;100.00;46660.41;6244307;22;20011;-72
2022/09/24 00:53:37;;;;;;;36.93;25.47;;;;;;;-145.18;100.00;46638.91;6243788;22;20039;-72
2022/09/24 00:56:03;;;;;;;35.33;23.93;;;;;;;-145.18;100.00;46660.41;6244195;23;20429;-72
2022/09/24 00:58:32;;;;;;;34.77;24.50;;;;;;;-145.18;100.00;46660.41;6243964;22;20004;-72
2022/09/24 01:01:03;;;;;;;38.87;26.87;;;;;;;-145.18;100.00;46660.41;6242716;23;20111;-72
2022/09/24 01:03:31;;;;;;;43.53;28.13;;;;;;;-145.18;100.00;46660.41;6242874;22;20012;-72
2022/09/24 01:05:56;;;;;;;40.40;28.07;;;;;;;-145.18;100.00;46660.41;6244264;22;20016;-72
2022/09/24 01:08:22;;;;;;;37.87;26.87;;;;;;;-145.18;100.00;46660.41;6242189;23;20031;-71
2022/09/24 01:11:10;;;;;;;46.37;28.83;;;;;;;-145.18;100.00;46660.41;6244017;22;20035;-71
2022/09/24 01:13:47;;;;;;;41.53;28.53;;;;;;;-145.18;100.00;46677.97;6243467;22;20012;-72
2022/09/24 01:16:18;;;;;;;42.10;27.63;;;;;;;-145.18;100.00;46660.41;6244189;22;20347;-72
2022/09/24 01:18:54;;;;;;;40.57;27.57;;;;;;;-145.18;100.00;46660.41;6243292;23;20083;-72
2022/09/24 01:21:36;;;;;;;37.10;26.40;;;;;;;-145.18;100.00;46660.41;6244184;22;20039;-72
2022/09/24 01:24:23;;;;;;;39.07;27.33;;;;;;;-145.18;100.00;46660.41;6243819;22;20027;-72
2022/09/24 01:27:20;;;;;;;35.73;26.30;;;;;;;-145.18;100.00;46660.41;6243362;22;20429;-72
2022/09/24 01:30:05;;;;;;;37.40;26.70;;;;;;;-145.18;100.00;46660.41;6243999;22;20011;-72
2022/09/24 01:32:37;;;;;;;36.50;26.40;;;;;;;-145.18;100.00;46677.97;6243495;22;20012;-72
2022/09/24 01:35:02;;;;;;;35.37;26.33;;;;;;;-145.18;100.00;46660.41;6217154;23;20004;-72
2022/09/24 01:37:31;;;;;;;36.97;26.37;;;;;;;-145.18;100.00;46677.97;6243371;23;20007;-72
2022/09/24 01:39:57;;;;;;;36.97;25.47;;;;;;;-145.18;100.00;46660.41;6244340;22;20357;-72
2022/09/24 01:42:26;;;;;;;33.83;24.50;;;;;;;-145.18;100.00;46640.88;6243300;22;20035;-72
2022/09/24 01:44:52;;;;;;;32.33;24.27;;;;;;;-145.18;100.00;46660.41;6243790;22;20472;-72
2022/09/24 01:47:25;;;;;;;32.80;25.13;;;;;;;-145.18;100.00;46660.41;6243515;22;20005;-72
2022/09/24 01:49:52;;;;;;;35.87;26.17;;;;;;;-145.18;100.00;46677.97;6243453;22;20000;-71
2022/09/24 01:52:24;;;;;;;31.40;23.17;;;;;;;-145.18;100.00;46660.41;6243192;22;20030;-71
2022/09/24 01:54:53;;;;;;;31.87;23.83;;;;;;;-145.18;100.00;46660.41;6243483;22;20425;-71
2022/09/24 01:57:22;;;;;;;33.93;24.67;;;;;;;-145.18;100.00;46660.41;6243365;22;20000;-71
2022/09/24 02:00:00;;;;;;;30.93;23.17;;;;;;;-145.18;100.00;46660.41;6243467;22;20341;-71
2022/09/24 02:02:46;;;;;;;33.80;25.17;;;;;;;-145.18;100.00;46660.41;6187122;22;20050;-72
2022/09/24 02:05:35;;;;;;;33.53;22.40;;;;;;;-145.18;100.00;46660.41;6239920;23;20011;-72
2022/09/24 02:08:19;;;;;;;35.87;25.60;;;;;;;-145.18;100.00;46660.41;6242789;23;20007;-72
2022/09/24 02:11:00;;;;;;;31.00;23.90;;;;;;;-145.18;100.00;46660.41;6216578;23;20049;-72
2022/09/24 02:13:30;;;;;;;32.47;24.07;;;;;;;-145.18;100.00;46660.41;6243025;23;20506;-73
2022/09/24 02:16:01;;;;;;;33.40;24.93;;;;;;;-145.18;100.00;46660.41;6243867;23;20000;-72
2022/09/24 02:18:33;;;;;;;30.83;23.57;;;;;;;-145.18;100.00;46660.41;6243343;23;20000;-72
2022/09/24 02:21:02;;;;;;;35.53;24.63;;;;;;;-145.18;100.00;46660.41;6243553;23;20085;-73
2022/09/24 02:23:31;;;;;;;35.10;25.07;;;;;;;-145.18;100.00;46677.97;6242879;23;20457;-72
2022/09/24 02:26:00;;;;;;;30.60;23.13;;;;;;;-145.18;100.00;46660.41;6243478;23;20437;-72
2022/09/24 02:28:26;;;;;;;36.57;25.60;;;;;;;-145.18;100.00;46640.88;6243528;23;20004;-72
2022/09/24 02:31:00;;;;;;;32.60;25.50;;;;;;;-145.18;100.00;46677.97;6243310;23;20333;-73
2022/09/24 02:36:12;;;;;;;31.60;22.33;;;;;;;-145.18;100.00;46660.41;6243658;23;20083;-73
2022/09/24 02:38:38;;;;;;;28.00;22.20;;;;;;;-145.18;100.00;46660.41;6216436;23;20371;-72
2022/09/24 02:41:07;;;;;;;29.67;22.10;;;;;;;-145.18;100.00;46660.41;6243213;23;20074;-72
2022/09/24 02:43:33;;;;;;;32.10;22.67;;;;;;;-145.18;100.00;46660.41;6243233;23;20016;-72
2022/09/24 02:45:59;;;;;;;30.60;22.60;;;;;;;-145.18;100.00;46660.41;6243739;23;20091;-72
2022/09/24 02:48:24;;;;;;;30.87;22.30;;;;;;;-145.18;100.00;46660.41;6243173;23;20008;-72
2022/09/24 02:50:49;;;;;;;30.00;21.87;;;;;;;-145.18;100.00;46677.97;6243043;23;20008;-71
2022/09/24 02:53:15;;;;;;;34.07;21.67;;;;;;;-145.18;100.00;46660.41;6242453;23;20018;-71
2022/09/24 02:55:40;;;;;;;29.80;21.07;;;;;;;-145.18;100.00;46660.41;6191778;23;20088;-71
2022/09/24 02:58:06;;;;;;;29.73;21.97;;;;;;;-145.18;100.00;46676.03;6242817;23;20028;-71
2022/09/24 03:00:31;;;;;;;30.77;23.13;;;;;;;-145.18;100.00;46660.41;6243420;23;20019;-71
2022/09/24 03:02:56;;;;;;;28.70;21.20;;;;;;;-145.18;100.00;46660.41;6242541;23;20020;-71
2022/09/24 03:05:22;;;;;;;30.90;23.10;;;;;;;-145.18;100.00;46660.41;6243776;23;20449;-71
2022/09/24 03:07:47;;;;;;;29.03;22.37;;;;;;;-145.18;100.00;46660.41;6243456;23;20417;-71
2022/09/24 03:10:12;;;;;;;29.67;21.73;;;;;;;-145.18;100.00;46660.41;6243139;23;20023;-71
2022/09/24 03:12:38;;;;;;;29.53;22.27;;;;;;;-145.18;100.00;46660.41;6243158;23;20008;-71
2022/09/24 03:15:03;;;;;;;30.07;21.40;;;;;;;-145.18;100.00;46660.41;6243104;23;20051;-71
2022/09/24 03:17:29;;;;;;;29.63;22.00;;;;;;;-145.18;100.00;46660.41;6243055;23;20015;-71
2022/09/24 03:19:55;;;;;;;33.50;22.27;;;;;;;-145.18;100.00;46660.41;6243026;23;20019;-72
2022/09/24 03:22:20;;;;;;;32.13;23.43;;;;;;;-145.18;100.00;46636.94;6242981;23;20016;-72
2022/09/24 03:24:46;;;;;;;33.80;24.30;;;;;;;-145.18;100.00;46660.41;6243647;23;20054;-72
2022/09/24 03:27:11;;;;;;;33.73;23.30;;;;;;;-145.18;100.00;46660.41;6215830;23;20438;-72
2022/09/24 03:32:20;;;;;;;32.73;23.27;;;;;;;-145.18;100.00;46660.41;6243263;23;20383;-72
2022/09/24 03:34:46;;;;;;;31.03;23.20;;;;;;;-145.18;100.00;46660.41;6243341;23;20087;-72
2022/09/24 03:37:11;;;;;;;32.23;23.63;;;;;;;-145.18;100.00;46660.41;6242412;23;20000;-72
2022/09/24 03:39:36;;;;;;;32.07;23.43;;;;;;;-145.18;100.00;46660.41;6243484;23;20036;-72
2022/09/24 03:42:02;;;;;;;32.47;23.43;;;;;;;-145.18;100.00;46660.41;6243053;23;20546;-72
2022/09/24 03:44:27;;;;;;;34.90;24.27;;;;;;;-145.18;100.00;46660.41;6243153;23;20004;-72
2022/09/24 03:46:52;;;;;;;36.20;24.10;;;;;;;-145.18;100.00;46660.41;6243589;23;20087;-72
2022/09/24 03:49:18;;;;;;;34.60;25.17;;;;;;;-145.18;100.00;46660.41;6215685;23;20004;-72
2022/09/24 03:51:43;;;;;;;31.43;23.17;;;;;;;-145.18;100.00;46660.41;6243450;23;20380;-72
2022/09/24 03:54:09;;;;;;;34.83;25.07;;;;;;;-145.18;100.00;46660.41;6242787;23;20004;-72
2022/09/24 03:56:34;;;;;;;34.40;24.37;;;;;;;-145.18;100.00;46660.41;6243639;23;20016;-72
2022/09/24 03:58:59;;;;;;;35.73;25.43;;;;;;;-145.18;100.00;46660.41;6242688;23;20000;-72
2022/09/24 04:01:25;;;;;;;33.83;24.20;;;;;;;-145.18;100.00;46660.41;6244603;23;20008;-72
2022/09/24 04:03:51;;;;;;;33.30;23.80;;;;;;;-145.18;100.00;46660.41;6220976;23;20099;-72
2022/09/24 04:06:17;;;;;;;36.97;25.00;;;;;;;-145.18;100.00;46660.41;6215072;23;20195;-72
2022/09/24 04:08:42;;;;;;;36.27;23.83;;;;;;;-145.18;100.00;46660.41;6214681;23;20036;-73
2022/09/24 04:11:08;;;;;;;31.53;23.40;;;;;;;-145.18;100.00;46660.41;6214728;23;20095;-72
2022/09/24 04:13:33;;;;;;;32.33;24.73;;;;;;;-145.18;100.00;46660.41;6214392;23;20422;-72
2022/09/24 04:16:03;;;;;;;32.37;24.03;;;;;;;-145.18;100.00;46660.41;6188123;23;20015;-72
2022/09/24 04:18:29;;;;;;;32.73;24.07;;;;;;;-145.18;100.00;46660.41;6214328;23;20088;-72
2022/09/24 04:21:00;;;;;;;30.70;24.07;;;;;;;-145.18;100.00;46660.41;6211613;23;20040;-72
2022/09/24 04:23:29;;;;;;;30.13;23.33;;;;;;;-145.18;100.00;46660.41;6187553;23;20015;-72
2022/09/24 04:25:55;;;;;;;30.40;23.70;;;;;;;-145.18;100.00;46660.41;6213001;23;20015;-72
2022/09/24 04:28:20;;;;;;;32.17;24.93;;;;;;;-145.18;100.00;46660.41;6214092;23;20032;-72
2022/09/24 04:30:45;;;;;;;29.50;24.23;;;;;;;-145.18;100.00;46660.41;6214935;23;20001;-72
2022/09/24 04:33:11;;;;;;;31.63;25.23;;;;;;;-145.18;100.00;46660.41;6187096;23;20013;-72
2022/09/24 04:35:36;;;;;;;30.43;24.93;;;;;;;-145.18;100.00;46660.41;6214727;23;20338;-71
2022/09/24 04:38:03;;;;;;;31.77;25.33;;;;;;;-145.18;100.00;46660.41;6184798;23;20009;-72
2022/09/24 04:40:29;;;;;;;35.47;26.30;;;;;;;-145.18;100.00;46660.41;6213964;23;20009;-72
2022/09/24 04:42:54;;;;;;;34.70;26.43;;;;;;;-145.18;100.00;46660.41;6212255;23;20013;-72
2022/09/24 04:45:20;;;;;;;33.30;26.17;;;;;;;-145.18;100.00;46660.41;6214254;23;20334;-72
2022/09/24 04:47:56;;;;;;;34.27;26.90;;;;;;;-145.18;100.00;46660.41;6214381;23;20005;-72
2022/09/24 04:50:26;;;;;;;34.50;26.93;;;;;;;-145.18;100.00;46660.41;6215130;23;20012;-72
2022/09/24 04:52:52;;;;;;;35.10;28.07;;;;;;;-145.18;100.00;46660.41;6213971;23;20066;-72
2022/09/24 04:55:19;;;;;;;35.90;27.50;;;;;;;-145.18;100.00;46660.41;6214663;23;20007;-72
2022/09/24 04:57:45;;;;;;;33.00;26.03;;;;;;;-145.18;100.00;46660.41;6213983;23;20000;-72
2022/09/24 05:00:14;;;;;;;31.60;25.43;;;;;;;-145.18;100.00;46660.41;6187419;23;20013;-73
2022/09/24 05:02:40;;;;;;;31.57;26.27;;;;;;;-145.18;100.00;46660.41;6215312;23;20422;-73
2022/09/24 05:05:07;;;;;;;35.23;27.30;;;;;;;-145.18;100.00;46660.41;6217676;23;20074;-73
2022/09/24 05:07:32;;;;;;;36.67;27.83;;;;;;;-145.18;100.00;46660.41;6243517;23;20086;-73
2022/09/24 05:09:57;;;;;;;37.57;28.43;;;;;;;-145.18;100.00;46660.41;6244123;23;20031;-73
2022/09/24 05:12:23;;;;;;;40.53;30.47;;;;;;;-145.18;100.00;46660.41;6216525;23;20012;-73
2022/09/24 05:14:48;;;;;;;39.30;28.13;;;;;;;-145.18;100.00;46660.41;6217461;23;20030;-73
2022/09/24 05:17:14;;;;;;;38.03;28.80;;;;;;;-145.18;100.00;46660.41;6244457;23;20012;-74
2022/09/24 05:19:39;;;;;;;37.30;27.60;;;;;;;-145.18;100.00;46660.41;6243998;23;20007;-74
2022/09/24 05:22:05;;;;;;;33.97;27.37;;;;;;;-145.18;100.00;46660.41;6217381;23;20023;-74
2022/09/24 05:24:30;;;;;;;37.13;29.10;;;;;;;-145.18;100.00;46660.41;6243858;23;20008;-74
2022/09/24 05:27:08;;;;;;;33.57;26.97;;;;;;;-145.18;100.00;46660.41;6215046;23;20035;-74
2022/09/24 05:29:34;;;;;;;36.17;26.93;;;;;;;-145.18;100.00;46660.41;6220271;23;20077;-74
2022/09/24 05:32:04;;;;;;;38.60;28.07;;;;;;;-145.18;100.00;46660.41;6244361;23;20019;-75
2022/09/24 05:34:30;;;;;;;40.00;27.93;;;;;;;-145.18;100.00;46660.41;6244058;23;20054;-75
2022/09/24 05:36:55;;;;;;;34.03;26.80;;;;;;;-145.18;100.00;46660.41;6244105;23;20000;-75
2022/09/24 05:39:20;;;;;;;35.30;26.87;;;;;;;-145.18;100.00;46660.41;6243196;23;20008;-75
2022/09/24 05:41:46;;;;;;;38.33;27.17;;;;;;;-145.18;100.00;46660.41;6217164;23;20008;-75
2022/09/24 05:44:12;;;;;;;34.07;25.77;;;;;;;-145.18;100.00;46636.94;6242454;23;20063;-75
2022/09/24 05:46:37;;;;;;;34.43;25.27;;;;;;;-145.18;100.00;46676.03;6244037;23;20012;-75
2022/09/24 05:49:03;;;;;;;31.27;24.37;;;;;;;-145.18;100.00;46636.94;6243231;23;20015;-76
2022/09/24 05:51:28;;;;;;;37.10;26.37;;;;;;;-145.18;100.00;46660.41;6217266;23;20008;-76
2022/09/24 05:53:54;;;;;;;33.37;25.53;;;;;;;-145.18;100.00;46660.41;6243499;23;20436;-76
2022/09/24 05:56:19;;;;;;;31.90;23.67;;;;;;;-145.18;100.00;46660.41;6244155;23;20008;-76
2022/09/24 05:58:48;;;;;;;36.50;25.03;;;;;;;-145.18;100.00;46660.41;6192056;23;20043;-76
2022/09/24 06:01:13;;;;;;;33.83;25.17;;;;;;;-145.18;100.00;46660.41;6243386;23;20043;-76
2022/09/24 06:03:38;;;;;;;34.13;25.23;;;;;;;-145.18;100.00;46660.41;6241645;23;20024;-76
2022/09/24 06:06:05;;;;;;;35.17;25.17;;;;;;;-145.18;100.00;46660.41;6243479;23;20015;-76
2022/09/24 06:08:33;;;;;;;35.47;25.77;;;;;;;-145.18;100.00;46660.41;6243466;23;20307;-76
2022/09/24 06:11:01;;;;;;;42.73;27.27;;;;;;;-145.18;100.00;46660.41;6243460;23;20007;-77
2022/09/24 06:13:27;;;;;;;38.77;27.57;;;;;;;-145.18;100.00;46660.41;6243021;23;20087;-76
2022/09/24 06:16:09;;;;;;;36.80;28.00;;;;;;;-145.18;100.00;46660.41;6243379;23;20366;-76
2022/09/24 06:18:40;;;;;;;38.47;28.40;;;;;;;-145.18;100.00;46660.41;6242885;23;19996;-76
2022/09/24 06:21:08;;;;;;;42.67;29.83;;;;;;;-145.18;100.00;46636.94;6242894;23;20322;-77
2022/09/24 06:23:35;;;;;;;40.30;29.87;;;;;;;-145.18;100.00;46676.03;6242528;23;20425;-77
2022/09/24 06:26:01;;;;;;;44.63;30.13;;;;;;;-145.18;100.00;46660.41;6242441;23;20011;-77
2022/09/24 06:28:26;;;;;;;46.10;29.63;;;;;;;-145.18;100.00;46660.41;6242207;23;20004;-77
2022/09/24 06:30:52;;;;;;;44.10;30.20;;;;;;;-145.18;100.00;46660.41;6243094;23;20012;-75
2022/09/24 06:33:22;;;;;;;44.70;29.57;;;;;;;-145.18;100.00;46676.03;6241949;23;20015;-75
2022/09/24 06:35:47;;;;;;;57.73;30.53;;;;;;;-145.18;100.00;46660.41;6241111;23;20008;-75
2022/09/24 06:38:15;;;;;;;41.53;29.70;;;;;;;-145.18;100.00;46660.41;6239392;23;20019;-75
2022/09/24 06:40:47;;;;;;;45.83;29.37;;;;;;;-145.18;100.00;46660.41;6238441;23;20011;-74
2022/09/24 06:43:14;;;;;;;44.30;29.93;;;;;;;-145.18;100.00;46660.41;6240225;23;20004;-74
2022/09/24 06:45:43;;;;;;;43.13;29.87;;;;;;;-145.18;100.00;46660.41;6241918;23;20455;-74
2022/09/24 06:48:11;;;;;;;40.17;28.77;;;;;;;-145.18;100.00;46660.41;6241925;23;20012;-73
2022/09/24 06:50:42;;;;;;;43.57;30.13;;;;;;;-145.18;100.00;46635.00;6242690;23;20007;-73
2022/09/24 06:53:08;;;;;;;45.80;29.23;;;;;;;-145.18;100.00;46660.41;6240581;23;20012;-73
2022/09/24 06:55:34;;;;;;;44.50;30.00;;;;;;;-145.18;100.00;46636.94;6242544;23;20430;-73
2022/09/24 06:58:10;;;;;;;44.27;29.93;;;;;;;-145.18;100.00;46635.00;6241799;23;20034;-73
2022/09/24 07:00:37;;;;;;;41.13;28.35;;;;;;;-145.18;100.00;46660.41;6242920;23;20008;-73
2022/09/24 07:03:03;;;;;;;40.87;27.83;;;;;;;-145.18;100.00;46660.41;6241683;23;20996;-73
2022/09/24 07:05:29;;;;;;;38.47;27.60;;;;;;;-145.18;100.00;46636.94;6242646;23;20004;-73
2022/09/24 07:07:54;;;;;;;39.30;26.80;;;;;;;-145.18;100.00;46635.00;6242181;23;20061;-73
2022/09/24 07:10:20;;;;;;;39.30;27.50;;;;;;;-145.18;100.00;46635.00;6242718;23;20000;-73
2022/09/24 07:12:45;;;;;;;36.00;25.70;;;;;;;-145.18;100.00;46660.41;6242463;23;20008;-73
2022/09/24 07:15:11;;;;;;;39.93;26.70;;;;;;;-145.18;100.00;46636.94;6242520;23;20039;-73
2022/09/24 07:17:36;;;;;;;36.40;25.43;;;;;;;-145.18;100.00;46633.06;6215890;23;20465;-72
2022/09/24 07:20:03;;;;;;;36.27;26.00;;;;;;;-145.18;100.00;46660.41;6242088;23;20008;-72
2022/09/24 07:22:29;;;;;;;35.97;25.20;;;;;;;-145.18;100.00;46633.06;6242620;23;20406;-72
2022/09/24 07:24:54;;;;;;;35.57;25.10;;;;;;;-145.18;100.00;46636.94;6214977;23;20019;-72
2022/09/24 07:27:20;;;;;;;32.57;23.20;;;;;;;-145.18;100.00;46631.09;6215748;23;20004;-72
2022/09/24 07:29:47;;;;;;;34.80;23.83;;;;;;;-145.18;100.00;46633.06;6241654;23;20448;-72
2022/09/24 07:32:14;;;;;;;31.43;22.33;;;;;;;-145.18;100.00;46636.94;6241659;23;20387;-73
2022/09/24 07:34:40;;;;;;;34.10;23.70;;;;;;;-145.18;100.00;46635.00;6241962;23;20430;-73
2022/09/24 07:37:05;;;;;;;31.47;22.00;;;;;;;-145.18;100.00;46636.94;6215249;23;20005;-72
2022/09/24 07:39:31;;;;;;;28.87;21.63;;;;;;;-145.18;100.00;46631.09;6242196;23;20070;-73
2022/09/24 07:41:57;;;;;;;31.43;21.90;;;;;;;-145.18;100.00;46635.00;6242241;23;20107;-73
2022/09/24 07:44:22;;;;;;;26.93;20.47;;;;;;;-145.18;100.00;46660.41;6241884;23;20000;-73
2022/09/24 07:46:49;;;;;;;28.53;20.67;;;;;;;-145.18;100.00;46635.00;6215697;23;20481;-74
2022/09/24 07:49:14;;;;;;;23.60;19.57;;;;;;;-145.18;100.00;46633.06;6241924;23;20054;-74
2022/09/24 07:51:40;;;;;;;27.00;19.83;;;;;;;-145.18;100.00;46635.00;6242620;23;20377;-74
2022/09/24 07:54:06;;;;;;;25.40;19.80;;;;;;;-145.18;100.00;46636.94;6240727;23;20487;-74
2022/09/24 07:56:31;;;;;;;24.53;19.73;;;;;;;-145.18;100.00;46636.94;6241196;23;20008;-74
2022/09/24 07:58:57;;;;;;;23.77;19.57;;;;;;;-145.18;100.00;46635.00;6240319;23;20008;-74
2022/09/24 08:01:23;;;;;;;23.83;19.83;;;;;;;-145.18;100.00;46636.94;6242380;23;20113;-75
2022/09/24 08:03:50;;;;;;;23.27;19.20;;;;;;;-145.18;100.00;46633.06;6241586;23;20008;-75
2022/09/24 08:06:16;;;;;;;22.97;18.93;;;;;;;-145.18;100.00;46636.94;6241511;23;20506;-74
2022/09/24 08:08:42;;;;;;;22.13;18.30;;;;;;;-145.18;100.00;46636.94;6238603;23;20083;-74
2022/09/24 08:11:10;;;;;;;26.13;19.97;;;;;;;-145.18;100.00;46635.00;6241459;23;20007;-74
2022/09/24 08:13:36;;;;;;;25.40;19.93;;;;;;;-145.18;100.00;46636.94;6241080;23;20047;-74
2022/09/24 08:16:03;;;;;;;25.87;19.97;;;;;;;-145.18;100.00;46633.06;6242005;23;20058;-74
2022/09/24 08:18:31;;;;;;;23.67;19.33;;;;;;;-145.18;100.00;46635.00;6241116;23;20057;-74
2022/09/24 08:20:58;;;;;;;22.53;18.73;;;;;;;-145.18;100.00;46640.88;6241896;23;20008;-74
2022/09/24 08:23:24;;;;;;;24.73;19.37;;;;;;;-145.18;100.00;46642.81;6241539;23;20465;-74
2022/09/24 08:25:50;;;;;;;21.93;18.40;;;;;;;-145.18;100.00;46640.88;6241746;23;20078;-74
2022/09/24 08:28:18;;;;;;;23.63;19.57;;;;;;;-145.18;100.00;46640.88;6240783;23;20019;-74
2022/09/24 08:30:44;;;;;;;23.33;19.03;;;;;;;-145.18;100.00;46636.94;6241899;23;20043;-74
2022/09/24 08:33:10;;;;;;;20.80;18.50;;;;;;;-145.18;100.00;46640.88;6240385;23;20345;-74
2022/09/24 08:35:38;;;;;;;22.90;19.47;;;;;;;-145.18;100.00;46638.91;6215199;23;20004;-74
2022/09/24 08:38:04;;;;;;;20.60;18.33;;;;;;;-145.18;100.00;46636.94;6241305;23;20100;-74
2022/09/24 08:40:37;;;;;;;24.07;19.80;;;;;;;-145.18;100.00;46644.78;6241523;23;20011;-74
2022/09/24 08:43:14;;;;;;;22.30;18.77;;;;;;;-145.18;100.00;46640.88;6240965;23;20062;-73
2022/09/24 08:48:33;;;;;;;21.27;18.80;;;;;;;-145.18;100.00;46640.88;6240963;23;20019;-74
2022/09/24 08:51:02;;;;;;;23.27;18.97;;;;;;;-145.18;100.00;46640.88;6216257;23;20012;-74
2022/09/24 08:53:36;;;;;;;20.10;17.87;;;;;;;-145.18;100.00;46640.88;6241534;23;20012;-73
2022/09/24 08:56:04;;;;;;;21.60;19.10;;;;;;;-145.18;100.00;46642.81;6243731;23;20001;-72
2022/09/24 08:58:59;;;;;;;23.47;19.67;;;;;;;-145.18;100.00;46642.81;6243434;23;20061;-73
2022/09/24 09:01:43;;;;;;;23.17;18.57;;;;;;;-145.18;100.00;46642.81;6229769;23;20004;-72
2022/09/24 09:04:27;;;;;;;22.23;19.23;;;;;;;-145.18;100.00;46642.81;6242661;23;20028;-72
2022/09/24 09:07:18;;;;;;;22.80;20.33;;;;;;;-145.18;100.00;46636.94;6243550;23;20054;-72
2022/09/24 09:09:49;;;;;;;22.47;20.07;;;;;;;-145.18;100.00;46644.78;6243556;23;20357;-72
2022/09/24 09:12:29;;;;;;;22.00;18.97;;;;;;;-145.18;100.00;46646.72;6243554;23;20012;-72
2022/09/24 09:15:05;;;;;;;21.17;18.70;;;;;;;-145.18;100.00;46638.91;6243135;23;20437;-72
2022/09/24 09:17:54;;;;;;;20.63;18.53;;;;;;;-145.18;100.00;46642.81;6216455;23;20445;-72
2022/09/24 09:20:40;;;;;;;25.93;19.83;;;;;;;-145.18;100.00;46640.88;6243025;23;20376;-73
2022/09/24 09:23:13;;;;;;;22.88;20.17;;;;;;;-145.18;100.00;46646.72;6243331;23;20361;-72
2022/09/24 09:25:41;;;;;;;24.17;19.63;;;;;;;-145.18;100.00;46640.88;6217152;23;20513;-72
2022/09/24 09:28:14;;;;;;;20.97;18.73;;;;;;;-145.18;100.00;46642.81;6243208;23;20329;-72
2022/09/24 09:31:23;;;;;;;21.93;19.53;;;;;;;-145.18;100.00;46642.81;6243931;23;20009;-72
2022/09/24 09:33:58;;;;;;;23.57;18.73;;;;;;;-145.18;100.00;46648.69;6242852;23;20035;-72
2022/09/24 09:36:32;;;;;;;22.40;18.80;;;;;;;-145.18;100.00;46640.88;6243415;23;20004;-72
2022/09/24 09:39:31;;;;;;;21.43;19.23;;;;;;;-145.18;100.00;46644.78;6242717;23;19996;-72
2022/09/24 09:42:21;;;;;;;23.50;20.10;;;;;;;-145.18;100.00;46644.78;6242826;23;20000;-73
2022/09/24 09:44:47;;;;;;;22.70;20.10;;;;;;;-145.18;100.00;46644.78;6242329;23;20067;-72
2022/09/24 09:47:21;;;;;;;22.07;19.27;;;;;;;-145.18;100.00;46644.78;6243207;23;20004;-72
2022/09/24 09:49:49;;;;;;;21.80;19.10;;;;;;;-145.18;100.00;46646.72;6242268;23;20004;-72
2022/09/24 09:52:19;;;;;;;22.93;19.67;;;;;;;-145.18;100.00;46648.69;6243025;23;20004;-72
2022/09/24 09:54:45;;;;;;;22.50;20.03;;;;;;;-145.18;100.00;46644.78;6242969;23;20012;-73
2022/09/24 09:57:16;;;;;;;23.03;20.03;;;;;;;-145.18;100.00;46646.72;6243125;23;20043;-73
2022/09/24 09:59:45;;;;;;;22.00;19.60;;;;;;;-145.18;100.00;46646.72;6243109;23;20078;-72
2022/09/24 10:02:21;;;;;;;22.47;19.73;;;;;;;-145.18;100.00;46644.78;6242920;23;20015;-72
2022/09/24 10:04:46;;;;;;;21.08;18.10;;;;;;;-145.18;100.00;46642.81;6242476;23;20016;-72
2022/09/24 10:07:16;;;;;;;19.57;17.47;;;;;;;-145.18;100.00;46648.69;6242624;23;20016;-72
2022/09/24 10:09:43;;;;;;;22.53;17.97;;;;;;;-145.18;100.00;46640.88;6242781;23;20004;-73
2022/09/24 10:12:14;;;;;;;22.67;18.20;;;;;;;-145.18;100.00;46646.72;6242772;23;20072;-73
2022/09/24 10:14:41;;;;;;;21.50;19.20;;;;;;;-145.18;100.00;46648.69;6242723;23;20110;-73
2022/09/24 10:17:13;;;;;;;20.30;18.13;;;;;;;-145.18;100.00;46648.69;6242515;23;20050;-73
2022/09/24 10:19:41;;;;;;;20.20;18.00;;;;;;;-145.18;100.00;46648.69;6243221;23;20346;-73
2022/09/24 10:22:27;;;;;;;19.57;17.37;;;;;;;-145.18;100.00;46646.72;6242850;23;20082;-73
2022/09/24 10:24:56;;;;;;;18.77;16.77;;;;;;;-145.18;100.00;46646.72;6242600;23;20073;-73
2022/09/24 10:27:34;;;;;;;19.47;15.97;;;;;;;-145.18;100.00;46642.81;6242223;23;20007;-73
2022/09/24 10:32:54;;;;;;;17.97;15.77;;;;;;;-145.18;100.00;46648.69;6243027;23;20023;-73
2022/09/24 10:35:26;;;;;;;17.57;15.07;;;;;;;-145.18;100.00;46648.69;6242321;23;20007;-73
2022/09/24 10:38:13;;;;;;;16.80;15.03;;;;;;;-145.18;100.00;46642.81;6243038;23;20075;-73
2022/09/24 10:40:39;;;;;;;15.20;13.60;;;;;;;-145.18;100.00;46644.78;6242615;23;20012;-74
2022/09/24 10:43:05;;;;;;;15.40;13.80;;;;;;;-145.18;100.00;46648.69;6242499;23;20012;-74
2022/09/24 10:45:42;;;;;;;16.57;14.87;;;;;;;-145.18;100.00;46648.69;6242729;23;20363;-73
2022/09/24 10:48:14;;;;;;;15.40;13.27;;;;;;;-145.18;100.00;46648.69;6240585;23;20031;-73
2022/09/24 10:50:50;;;;;;;14.17;12.67;;;;;;;-145.18;100.00;46648.69;6241322;23;20011;-74
2022/09/24 10:53:40;;;;;;;14.00;12.60;;;;;;;-145.18;100.00;46648.69;6242325;23;20341;-74
2022/09/24 10:56:34;;;;;;;12.00;10.80;;;;;;;-145.18;100.00;46650.63;6242349;23;20110;-73
2022/09/24 10:59:12;;;;;;;12.43;11.23;;;;;;;-145.18;100.00;46644.78;6241880;23;20000;-74
2022/09/24 11:02:05;;;;;;;12.00;10.80;;;;;;;-145.18;100.00;46650.63;6242588;23;20051;-73
2022/09/24 11:04:54;;;;;;;12.17;10.90;;;;;;;-145.18;100.00;46650.63;6240899;23;20594;-73
2022/09/24 11:07:46;;;;;;;12.00;10.80;;;;;;;-145.18;100.00;46652.59;6240681;23;20070;-74
2022/09/24 11:10:38;;;;;;;12.13;10.80;;;;;;;-145.18;100.00;46652.59;6240828;23;20004;-73
2022/09/24 11:13:22;;;;;;;10.70;9.60;;;;;;;-145.18;100.00;46650.63;6242229;23;20036;-73
2022/09/24 11:16:21;;;;;;;16.50;10.80;;;;;;;-145.18;100.00;46658.44;6242166;23;20019;-73
2022/09/24 11:18:56;;;;;;;11.73;10.53;;;;;;;-145.18;100.00;46652.59;6241440;23;20015;-73
2022/09/24 11:21:27;;;;;;;12.53;10.50;;;;;;;-145.18;100.00;46652.59;6242419;23;20087;-73